Time;durP1;ratioP1;P1;durP2;ratioP2;P2;SDS_P1;SDS_P2;PMS_P1;PMS_P2;Temp;Humidity;BMP_temperature;BMP_pressure;BME280_temperature;BME280_humidity;BME280_pressure;Samples;Min_cycle;Max_cycle;Signal;HPM_P1;HPM_P2
2023/04/05 00:01:25;;;;;;;13.38;5.80;;;;;;;;;;5050895;28;20041;-80
2023/04/05 00:03:53;;;;;;;11.90;5.78;;;;;;;;;;5051263;28;20343;-80
2023/04/05 00:06:21;;;;;;;11.10;5.82;;;;;;;;;;5050989;28;20076;-80
2023/04/05 00:08:48;;;;;;;11.05;5.78;;;;;;;;;;5051499;28;20041;-80
2023/04/05 00:11:15;;;;;;;10.40;5.75;;;;;;;;;;5051398;28;20393;-80
2023/04/05 00:13:41;;;;;;;13.90;6.10;;;;;;;;;;5051741;28;20044;-80
2023/04/05 00:16:08;;;;;;;11.32;5.30;;;;;;;;;;5050988;28;20043;-79
2023/04/05 00:18:37;;;;;;;12.10;5.18;;;;;;;;;;5052007;28;20044;-80
2023/04/05 00:21:03;;;;;;;13.50;6.65;;;;;;;;;;5037470;28;20037;-81
2023/04/05 00:23:36;;;;;;;12.05;5.70;;;;;;;;;;5056963;28;20041;-80
2023/04/05 00:26:02;;;;;;;10.73;6.03;;;;;;;;;;5056313;28;20051;-80
2023/04/05 00:28:28;;;;;;;11.45;5.55;;;;;;;;;;5054741;28;20102;-80
2023/04/05 00:30:54;;;;;;;14.45;5.80;;;;;;;;;;5054604;28;20044;-80
2023/04/05 00:33:20;;;;;;;12.60;5.70;;;;;;;;;;5056081;28;20029;-80
2023/04/05 00:35:46;;;;;;;10.82;5.60;;;;;;;;;;5054334;28;20064;-80
2023/04/05 00:38:12;;;;;;;11.55;5.70;;;;;;;;;;5055459;28;20069;-80
2023/04/05 00:40:38;;;;;;;14.80;5.60;;;;;;;;;;5055759;28;20045;-81
2023/04/05 00:43:05;;;;;;;11.18;5.05;;;;;;;;;;5053924;28;20052;-80
2023/04/05 00:45:31;;;;;;;16.15;6.30;;;;;;;;;;5055428;28;20072;-81
2023/04/05 00:47:57;;;;;;;12.75;6.10;;;;;;;;;;5055105;28;20084;-81
2023/04/05 00:50:23;;;;;;;20.17;5.63;;;;;;;;;;5037345;28;20045;-80
2023/04/05 00:52:50;;;;;;;9.98;5.22;;;;;;;;;;5055103;28;20405;-80
2023/04/05 00:55:16;;;;;;;10.50;4.88;;;;;;;;;;5053730;28;20041;-80
2023/04/05 00:57:44;;;;;;;12.15;5.60;;;;;;;;;;5053964;28;20049;-80
2023/04/05 01:00:10;;;;;;;12.90;5.93;;;;;;;;;;5055408;28;20077;-80
2023/04/05 01:02:51;;;;;;;13.77;6.40;;;;;;;;;;5041036;28;20037;-80
2023/04/05 01:05:23;;;;;;;10.23;5.40;;;;;;;;;;5053828;28;20468;-81
2023/04/05 01:08:04;;;;;;;12.13;5.57;;;;;;;;;;5054637;28;20033;-80
2023/04/05 01:10:42;;;;;;;15.77;6.07;;;;;;;;;;5053324;28;20057;-81
2023/04/05 01:13:08;;;;;;;14.27;5.93;;;;;;;;;;5054875;28;20482;-80
2023/04/05 01:15:35;;;;;;;12.15;6.03;;;;;;;;;;5054961;28;20052;-81
2023/04/05 01:18:01;;;;;;;12.63;5.57;;;;;;;;;;5049086;28;20120;-80
2023/04/05 01:20:32;;;;;;;13.88;5.88;;;;;;;;;;5054739;28;20395;-80
2023/04/05 01:23:13;;;;;;;14.27;6.30;;;;;;;;;;5053447;28;20049;-81
2023/04/05 01:25:58;;;;;;;9.80;4.80;;;;;;;;;;5036442;28;20044;-80
2023/04/05 01:28:51;;;;;;;12.02;6.13;;;;;;;;;;5054637;28;20075;-81
2023/04/05 01:31:20;;;;;;;14.98;7.25;;;;;;;;;;5053259;28;20429;-80
2023/04/05 01:34:09;;;;;;;12.27;6.72;;;;;;;;;;5054986;28;20084;-80
2023/04/05 01:36:49;;;;;;;11.90;6.43;;;;;;;;;;5050176;28;20045;-80
2023/04/05 01:39:16;;;;;;;14.70;7.40;;;;;;;;;;5039293;28;20047;-80
2023/04/05 01:41:42;;;;;;;10.45;5.45;;;;;;;;;;5051101;28;20037;-81
2023/04/05 01:44:09;;;;;;;13.40;6.25;;;;;;;;;;5052732;28;20485;-80
2023/04/05 01:46:35;;;;;;;13.95;6.30;;;;;;;;;;5089955;28;20082;-80
2023/04/05 01:49:01;;;;;;;15.57;6.93;;;;;;;;;;5069385;28;20127;-81
2023/04/05 01:51:27;;;;;;;12.77;6.40;;;;;;;;;;5060074;28;20047;-80
2023/04/05 01:53:53;;;;;;;12.77;6.32;;;;;;;;;;5073827;28;20041;-80
2023/04/05 01:56:19;;;;;;;12.15;5.68;;;;;;;;;;5058567;28;20090;-80
2023/04/05 01:58:45;;;;;;;12.80;5.60;;;;;;;;;;5066848;28;20064;-80
2023/04/05 02:01:11;;;;;;;11.25;5.80;;;;;;;;;;5071306;28;20041;-80
2023/04/05 02:03:37;;;;;;;11.90;6.05;;;;;;;;;;5053678;28;20123;-80
2023/04/05 02:06:04;;;;;;;15.98;6.45;;;;;;;;;;5052494;28;20041;-80
2023/04/05 02:08:30;;;;;;;16.80;6.75;;;;;;;;;;5052443;28;20033;-80
2023/04/05 02:10:57;;;;;;;10.98;6.63;;;;;;;;;;5068465;28;20128;-80
2023/04/05 02:13:24;;;;;;;14.30;6.53;;;;;;;;;;5048149;28;20060;-80
2023/04/05 02:15:50;;;;;;;14.18;6.47;;;;;;;;;;5085463;28;20049;-80
2023/04/05 02:18:30;;;;;;;12.13;5.93;;;;;;;;;;5081134;28;20036;-80
2023/04/05 02:21:06;;;;;;;12.18;6.20;;;;;;;;;;5073151;28;20121;-80
2023/04/05 02:23:33;;;;;;;14.05;6.72;;;;;;;;;;5072298;28;20068;-80
2023/04/05 02:25:59;;;;;;;15.38;5.97;;;;;;;;;;5072738;28;20032;-80
2023/04/05 02:28:25;;;;;;;17.08;5.82;;;;;;;;;;5072044;28;20040;-80
2023/04/05 02:30:51;;;;;;;11.05;6.00;;;;;;;;;;5057197;28;20074;-80
2023/04/05 02:33:18;;;;;;;12.80;6.70;;;;;;;;;;5051850;28;20053;-80
2023/04/05 02:35:44;;;;;;;13.75;6.78;;;;;;;;;;5051314;28;20142;-80
2023/04/05 02:38:10;;;;;;;11.10;5.88;;;;;;;;;;5053155;28;20105;-80
2023/04/05 02:40:40;;;;;;;12.48;6.13;;;;;;;;;;5017581;28;20124;-81
2023/04/05 02:43:06;;;;;;;13.95;6.13;;;;;;;;;;5051722;28;20084;-80
2023/04/05 02:45:32;;;;;;;11.75;5.82;;;;;;;;;;5053002;28;20045;-80
2023/04/05 02:47:58;;;;;;;12.18;6.53;;;;;;;;;;5052549;28;20497;-81
2023/04/05 02:50:25;;;;;;;13.20;5.47;;;;;;;;;;5052629;28;20041;-80
2023/04/05 02:52:51;;;;;;;12.02;6.25;;;;;;;;;;5053219;28;20112;-80
2023/04/05 02:55:17;;;;;;;12.43;6.28;;;;;;;;;;5037476;28;20071;-80
2023/04/05 02:57:44;;;;;;;12.13;6.47;;;;;;;;;;5052657;28;20041;-80
2023/04/05 03:00:11;;;;;;;11.55;6.00;;;;;;;;;;5052389;28;20520;-79
2023/04/05 03:02:38;;;;;;;13.13;6.40;;;;;;;;;;5043502;28;20097;-79
2023/04/05 03:05:06;;;;;;;13.23;7.40;;;;;;;;;;5050949;28;20395;-80
2023/04/05 03:07:32;;;;;;;13.95;6.38;;;;;;;;;;5052810;28;20045;-80
2023/04/05 03:09:58;;;;;;;12.40;6.20;;;;;;;;;;5051162;28;20048;-80
2023/04/05 03:12:25;;;;;;;14.20;6.57;;;;;;;;;;5052374;28;20090;-80
2023/04/05 03:14:51;;;;;;;18.45;6.85;;;;;;;;;;5051519;28;20052;-80
2023/04/05 03:17:17;;;;;;;12.30;6.15;;;;;;;;;;5052171;28;20586;-80
2023/04/05 03:19:44;;;;;;;12.23;6.35;;;;;;;;;;5051091;28;20045;-80
2023/04/05 03:22:10;;;;;;;15.80;7.28;;;;;;;;;;5052318;28;20049;-80
2023/04/05 03:24:36;;;;;;;15.77;6.57;;;;;;;;;;5051338;28;20397;-80
2023/04/05 03:27:04;;;;;;;11.65;6.28;;;;;;;;;;5050700;28;20045;-80
2023/04/05 03:29:31;;;;;;;12.25;6.25;;;;;;;;;;5052169;28;20497;-79
2023/04/05 03:31:58;;;;;;;13.32;6.72;;;;;;;;;;5052204;28;20041;-80
2023/04/05 03:34:27;;;;;;;14.85;6.88;;;;;;;;;;5050613;28;20068;-79
2023/04/05 03:36:56;;;;;;;14.80;6.43;;;;;;;;;;5051951;28;20132;-79
2023/04/05 03:39:22;;;;;;;15.77;6.63;;;;;;;;;;5050631;28;20132;-79
2023/04/05 03:41:49;;;;;;;16.55;7.35;;;;;;;;;;5051955;28;20045;-80
2023/04/05 03:44:15;;;;;;;17.35;7.38;;;;;;;;;;5051943;28;20103;-80
2023/04/05 03:46:41;;;;;;;12.85;6.22;;;;;;;;;;5051981;28;20076;-80
2023/04/05 03:49:07;;;;;;;15.85;7.88;;;;;;;;;;5051771;28;20517;-80
2023/04/05 03:51:34;;;;;;;16.75;7.03;;;;;;;;;;5052064;28;20489;-80
2023/04/05 03:54:00;;;;;;;14.88;7.50;;;;;;;;;;5051720;28;20033;-81
2023/04/05 03:56:26;;;;;;;14.85;6.18;;;;;;;;;;5050321;28;20040;-81
2023/04/05 03:58:52;;;;;;;15.20;6.97;;;;;;;;;;5051848;28;20063;-79
2023/04/05 04:01:18;;;;;;;19.58;7.55;;;;;;;;;;5044652;28;20067;-79
2023/04/05 04:03:44;;;;;;;14.65;7.30;;;;;;;;;;5033898;28;20044;-79
2023/04/05 04:06:11;;;;;;;16.23;7.30;;;;;;;;;;5049108;28;20040;-79
2023/04/05 04:08:37;;;;;;;13.30;7.15;;;;;;;;;;5050597;28;20044;-79
2023/04/05 04:11:03;;;;;;;14.98;6.35;;;;;;;;;;5051698;28;20037;-79
2023/04/05 04:13:29;;;;;;;16.35;6.85;;;;;;;;;;5050020;28;20039;-79
2023/04/05 04:15:55;;;;;;;14.63;6.70;;;;;;;;;;5051687;28;20041;-79
2023/04/05 04:18:21;;;;;;;17.80;7.63;;;;;;;;;;5051168;28;20063;-79
2023/04/05 04:20:48;;;;;;;18.75;7.05;;;;;;;;;;5050401;28;20126;-80
2023/04/05 04:23:14;;;;;;;17.05;7.70;;;;;;;;;;5051274;28;20060;-80
2023/04/05 04:25:44;;;;;;;19.70;7.60;;;;;;;;;;5067142;28;20128;-79
2023/04/05 04:28:11;;;;;;;14.63;7.07;;;;;;;;;;5051069;28;20481;-79
2023/04/05 04:30:37;;;;;;;14.25;6.93;;;;;;;;;;5051436;28;20053;-79
2023/04/05 04:33:04;;;;;;;16.08;8.30;;;;;;;;;;5051684;28;20040;-79
2023/04/05 04:35:32;;;;;;;18.63;8.18;;;;;;;;;;5050946;28;20033;-79
2023/04/05 04:37:59;;;;;;;16.88;7.95;;;;;;;;;;5051530;28;20037;-79
2023/04/05 04:40:37;;;;;;;20.42;8.05;;;;;;;;;;5051147;28;20175;-80
2023/04/05 04:43:16;;;;;;;14.98;7.28;;;;;;;;;;5050064;28;20182;-79
2023/04/05 04:45:47;;;;;;;15.25;6.60;;;;;;;;;;5050522;28;20489;-79
2023/04/05 04:48:16;;;;;;;13.60;6.63;;;;;;;;;;5049641;28;20128;-80
2023/04/05 04:50:45;;;;;;;17.52;8.15;;;;;;;;;;5083632;28;20409;-79
2023/04/05 04:53:17;;;;;;;14.52;7.40;;;;;;;;;;5052554;28;20409;-79
2023/04/05 04:55:43;;;;;;;19.63;7.45;;;;;;;;;;5051378;28;20553;-80
2023/04/05 04:58:10;;;;;;;17.33;7.10;;;;;;;;;;5050304;28;20044;-80
2023/04/05 05:00:40;;;;;;;17.60;8.13;;;;;;;;;;5046971;28;20061;-79
2023/04/05 05:03:10;;;;;;;19.02;7.93;;;;;;;;;;5047706;28;20080;-80
2023/04/05 05:05:41;;;;;;;18.08;7.10;;;;;;;;;;5050705;28;20393;-80
2023/04/05 05:08:07;;;;;;;15.88;7.03;;;;;;;;;;5053814;28;20152;-79
2023/04/05 05:10:33;;;;;;;19.20;8.00;;;;;;;;;;5036611;28;20132;-80
2023/04/05 05:12:59;;;;;;;14.45;7.22;;;;;;;;;;5054689;28;20150;-80
2023/04/05 05:15:26;;;;;;;15.63;7.35;;;;;;;;;;5053259;28;20044;-80
2023/04/05 05:17:54;;;;;;;15.85;7.63;;;;;;;;;;5054546;28;20068;-80
2023/04/05 05:20:21;;;;;;;17.35;7.97;;;;;;;;;;5036488;28;20041;-80
2023/04/05 05:22:47;;;;;;;18.80;8.30;;;;;;;;;;5054661;28;20060;-80
2023/04/05 05:25:13;;;;;;;20.35;8.85;;;;;;;;;;5086894;28;20493;-81
2023/04/05 05:27:40;;;;;;;17.45;8.63;;;;;;;;;;5052827;28;20080;-80
2023/04/05 05:30:06;;;;;;;18.63;9.23;;;;;;;;;;5054360;28;20152;-80
2023/04/05 05:32:32;;;;;;;18.50;8.07;;;;;;;;;;5053274;28;20052;-80
2023/04/05 05:34:58;;;;;;;22.23;8.82;;;;;;;;;;5053195;28;20052;-81
2023/04/05 05:37:31;;;;;;;16.90;8.73;;;;;;;;;;5052502;28;20109;-81
2023/04/05 05:39:58;;;;;;;14.48;8.20;;;;;;;;;;5054583;28;20512;-81
2023/04/05 05:42:24;;;;;;;14.93;8.05;;;;;;;;;;5053814;28;20445;-82
2023/04/05 05:44:50;;;;;;;14.05;7.30;;;;;;;;;;5054191;28;20052;-81
2023/04/05 05:47:16;;;;;;;15.60;7.47;;;;;;;;;;5052945;28;20044;-81
2023/04/05 05:49:42;;;;;;;14.55;7.22;;;;;;;;;;5045617;28;20045;-81
2023/04/05 05:52:09;;;;;;;12.00;7.18;;;;;;;;;;5064282;28;20043;-82
2023/04/05 05:54:35;;;;;;;13.30;7.40;;;;;;;;;;5072572;28;20127;-81
2023/04/05 05:57:01;;;;;;;14.05;7.38;;;;;;;;;;5072847;28;20036;-82
2023/04/05 05:59:27;;;;;;;11.68;6.57;;;;;;;;;;5073692;28;20048;-82
2023/04/05 06:01:54;;;;;;;12.73;6.65;;;;;;;;;;5072807;28;20501;-82
2023/04/05 06:04:20;;;;;;;13.75;6.85;;;;;;;;;;5073584;28;20043;-82
2023/04/05 06:06:46;;;;;;;13.60;6.68;;;;;;;;;;5074044;28;20044;-82
2023/04/05 06:09:14;;;;;;;13.52;7.30;;;;;;;;;;5045663;28;20116;-82
2023/04/05 06:11:40;;;;;;;11.90;7.13;;;;;;;;;;5070205;28;20110;-82
2023/04/05 06:14:06;;;;;;;12.23;7.10;;;;;;;;;;5072497;28;20040;-82
2023/04/05 06:16:34;;;;;;;15.27;7.35;;;;;;;;;;5071927;28;20044;-82
2023/04/05 06:19:00;;;;;;;12.13;7.50;;;;;;;;;;5072888;28;20041;-82
2023/04/05 06:21:26;;;;;;;12.40;7.28;;;;;;;;;;5073285;28;20043;-82
2023/04/05 06:23:52;;;;;;;15.00;7.78;;;;;;;;;;5055639;28;20047;-82
2023/04/05 06:26:19;;;;;;;14.05;7.70;;;;;;;;;;5072520;28;20516;-82
2023/04/05 06:28:48;;;;;;;12.07;7.75;;;;;;;;;;5071989;28;20044;-82
2023/04/05 06:31:19;;;;;;;13.35;8.27;;;;;;;;;;5066213;28;20037;-81
2023/04/05 06:33:46;;;;;;;13.52;8.60;;;;;;;;;;5053119;28;20041;-81
2023/04/05 06:36:13;;;;;;;14.25;8.35;;;;;;;;;;5052090;28;20053;-81
2023/04/05 06:38:39;;;;;;;12.82;8.15;;;;;;;;;;5051420;28;20057;-81
2023/04/05 06:41:05;;;;;;;11.90;8.27;;;;;;;;;;5052075;28;20040;-82
2023/04/05 06:43:31;;;;;;;13.73;8.80;;;;;;;;;;5051662;28;20502;-81
2023/04/05 06:45:58;;;;;;;15.75;9.02;;;;;;;;;;5051703;28;20045;-81
2023/04/05 06:48:24;;;;;;;12.27;8.25;;;;;;;;;;5053175;28;20397;-82
2023/04/05 06:51:00;;;;;;;13.55;8.63;;;;;;;;;;5053059;28;20596;-82
2023/04/05 06:53:26;;;;;;;;;;;;;;;;;;5059536;28;20028;-82
2023/04/05 06:55:53;;;;;;;12.93;8.43;;;;;;;;;;5073118;28;19999;-82
2023/04/05 06:58:19;;;;;;;17.13;8.60;;;;;;;;;;5072869;28;20066;-82
2023/04/05 07:00:46;;;;;;;12.68;8.55;;;;;;;;;;5067590;28;20531;-82
2023/04/05 07:03:12;;;;;;;14.15;8.40;;;;;;;;;;5069715;28;20113;-82
2023/04/05 07:05:38;;;;;;;11.93;8.45;;;;;;;;;;5071575;28;20037;-82
2023/04/05 07:08:04;;;;;;;12.50;8.85;;;;;;;;;;5066186;28;20044;-81
2023/04/05 07:10:30;;;;;;;12.07;8.38;;;;;;;;;;5052855;28;20048;-83
2023/04/05 07:12:56;;;;;;;12.23;8.65;;;;;;;;;;5035557;28;20123;-82
2023/04/05 07:15:22;;;;;;;14.68;8.52;;;;;;;;;;5052519;28;20432;-83
2023/04/05 07:17:48;;;;;;;14.90;9.25;;;;;;;;;;5051306;28;20521;-82
2023/04/05 07:20:15;;;;;;;11.30;8.30;;;;;;;;;;5052752;28;20124;-82
2023/04/05 07:22:41;;;;;;;14.20;8.82;;;;;;;;;;5052330;28;20037;-83
2023/04/05 07:25:08;;;;;;;13.20;8.90;;;;;;;;;;5052430;28;20040;-83
2023/04/05 07:27:34;;;;;;;12.10;8.63;;;;;;;;;;5051142;28;20036;-82
2023/04/05 07:30:00;;;;;;;13.77;8.52;;;;;;;;;;5033420;28;20060;-82
2023/04/05 07:32:26;;;;;;;11.48;8.30;;;;;;;;;;5050984;28;20041;-83
2023/04/05 07:34:53;;;;;;;11.35;7.97;;;;;;;;;;5050807;28;20094;-83
2023/04/05 07:37:19;;;;;;;12.40;8.60;;;;;;;;;;5051092;28;20053;-82
2023/04/05 07:39:45;;;;;;;13.63;9.07;;;;;;;;;;5050731;28;20540;-83
2023/04/05 07:42:11;;;;;;;12.57;8.35;;;;;;;;;;5034445;28;20079;-83
2023/04/05 07:44:37;;;;;;;11.40;7.88;;;;;;;;;;5050497;28;20460;-83
2023/04/05 07:47:03;;;;;;;12.23;7.97;;;;;;;;;;5051311;28;20409;-83
2023/04/05 07:49:30;;;;;;;12.38;8.15;;;;;;;;;;5053720;28;20048;-83
2023/04/05 07:51:56;;;;;;;12.15;8.35;;;;;;;;;;5071924;28;20044;-83
2023/04/05 07:54:23;;;;;;;10.85;8.15;;;;;;;;;;5072046;28;20119;-83
2023/04/05 07:56:49;;;;;;;13.43;8.07;;;;;;;;;;5071738;28;20040;-83
2023/04/05 07:59:15;;;;;;;12.23;8.05;;;;;;;;;;5071122;28;20075;-83
2023/04/05 08:01:41;;;;;;;11.70;8.13;;;;;;;;;;5062938;28;20044;-83
2023/04/05 08:04:07;;;;;;;11.93;7.70;;;;;;;;;;5071925;28;20051;-83
2023/04/05 08:06:34;;;;;;;11.90;8.20;;;;;;;;;;5070814;28;20044;-83
2023/04/05 08:09:02;;;;;;;10.30;7.75;;;;;;;;;;5070660;28;20045;-83
2023/04/05 08:11:28;;;;;;;12.00;7.32;;;;;;;;;;5055335;28;20502;-83
2023/04/05 08:13:54;;;;;;;9.95;7.10;;;;;;;;;;5051503;28;20060;-84
2023/04/05 08:16:20;;;;;;;10.32;7.18;;;;;;;;;;5052158;28;20116;-83
2023/04/05 08:18:47;;;;;;;11.52;7.07;;;;;;;;;;5051390;28;20040;-83
2023/04/05 08:21:13;;;;;;;10.50;6.85;;;;;;;;;;5050730;28;20398;-83
2023/04/05 08:23:39;;;;;;;10.25;6.70;;;;;;;;;;5017560;28;20443;-83
2023/04/05 08:26:06;;;;;;;10.23;6.65;;;;;;;;;;5033988;28;20082;-83
2023/04/05 08:28:32;;;;;;;14.32;6.88;;;;;;;;;;5052127;28;20087;-83
2023/04/05 08:30:59;;;;;;;10.77;6.70;;;;;;;;;;5051485;28;20048;-82
2023/04/05 08:33:27;;;;;;;11.73;7.07;;;;;;;;;;5051836;28;20041;-82
2023/04/05 08:35:53;;;;;;;9.15;6.57;;;;;;;;;;5050044;28;20061;-82
2023/04/05 08:38:19;;;;;;;8.80;6.40;;;;;;;;;;5050320;28;20045;-83
2023/04/05 08:40:47;;;;;;;8.80;6.72;;;;;;;;;;5052037;28;20482;-83
2023/04/05 08:43:16;;;;;;;10.10;6.00;;;;;;;;;;5054367;28;20045;-82
2023/04/05 08:46:01;;;;;;;9.68;5.75;;;;;;;;;;5055332;28;20456;-83
2023/04/05 08:48:30;;;;;;;10.50;5.72;;;;;;;;;;5054136;28;20056;-82
2023/04/05 08:50:56;;;;;;;9.95;6.07;;;;;;;;;;5053798;28;20041;-82
2023/04/05 08:53:22;;;;;;;9.60;5.80;;;;;;;;;;5046212;28;20072;-83
2023/04/05 08:55:52;;;;;;;8.88;5.72;;;;;;;;;;5073963;28;20102;-82
2023/04/05 08:58:21;;;;;;;7.35;5.30;;;;;;;;;;5074058;28;20130;-83
2023/04/05 09:00:47;;;;;;;8.93;5.70;;;;;;;;;;5071239;28;20045;-82
2023/04/05 09:03:15;;;;;;;7.95;4.78;;;;;;;;;;5071301;28;20097;-83
2023/04/05 09:05:45;;;;;;;6.97;5.18;;;;;;;;;;5074029;28;20044;-82
2023/04/05 09:08:12;;;;;;;7.82;5.35;;;;;;;;;;5060677;28;20123;-82
2023/04/05 09:10:38;;;;;;;7.57;5.18;;;;;;;;;;5055720;28;20126;-83
2023/04/05 09:13:04;;;;;;;7.55;4.47;;;;;;;;;;5054856;28;20037;-83
2023/04/05 09:15:30;;;;;;;8.70;5.22;;;;;;;;;;5054191;28;20550;-83
2023/04/05 09:17:57;;;;;;;7.57;5.55;;;;;;;;;;5053769;28;20036;-82
2023/04/05 09:20:23;;;;;;;8.13;5.32;;;;;;;;;;5054890;28;20041;-83
2023/04/05 09:22:49;;;;;;;8.90;5.00;;;;;;;;;;5053247;28;20049;-83
2023/04/05 09:25:31;;;;;;;13.48;5.40;;;;;;;;;;5054818;28;20393;-83
2023/04/05 09:27:57;;;;;;;6.57;5.00;;;;;;;;;;5053086;28;20116;-83
2023/04/05 09:30:24;;;;;;;8.27;4.88;;;;;;;;;;5053451;28;20126;-83
2023/04/05 09:32:54;;;;;;;6.88;5.28;;;;;;;;;;5053113;28;20076;-82
2023/04/05 09:35:27;;;;;;;7.65;5.22;;;;;;;;;;5053098;28;20124;-83
2023/04/05 09:37:55;;;;;;;8.73;5.32;;;;;;;;;;5052992;28;20052;-82
2023/04/05 09:40:21;;;;;;;6.63;4.60;;;;;;;;;;5053423;28;20503;-83
2023/04/05 09:42:47;;;;;;;9.93;5.70;;;;;;;;;;5036328;28;20164;-83
2023/04/05 09:45:21;;;;;;;9.38;5.18;;;;;;;;;;5053247;28;20053;-83
2023/04/05 09:47:55;;;;;;;8.77;5.55;;;;;;;;;;5053215;28;20055;-83
2023/04/05 09:50:21;;;;;;;7.93;5.40;;;;;;;;;;5054160;28;20505;-83
2023/04/05 09:52:48;;;;;;;7.65;4.97;;;;;;;;;;5054230;28;20162;-83
2023/04/05 09:55:24;;;;;;;8.25;5.18;;;;;;;;;;5074271;28;20119;-83
2023/04/05 09:57:51;;;;;;;7.28;4.95;;;;;;;;;;5072509;28;20048;-83
2023/04/05 10:00:21;;;;;;;6.32;4.93;;;;;;;;;;5074274;28;20047;-83
2023/04/05 10:02:48;;;;;;;7.05;4.72;;;;;;;;;;5066527;28;20040;-83
2023/04/05 10:05:14;;;;;;;7.50;4.93;;;;;;;;;;5041931;28;20033;-82
2023/04/05 10:07:44;;;;;;;8.82;4.47;;;;;;;;;;5073083;28;20068;-83
2023/04/05 10:10:11;;;;;;;7.03;4.63;;;;;;;;;;5059382;28;20040;-83
2023/04/05 10:12:38;;;;;;;5.88;4.85;;;;;;;;;;5063986;28;20040;-83
2023/04/05 10:15:04;;;;;;;7.40;5.40;;;;;;;;;;5052478;28;20040;-83
2023/04/05 10:17:37;;;;;;;8.18;5.50;;;;;;;;;;5052581;28;20045;-82
2023/04/05 10:20:13;;;;;;;8.70;5.30;;;;;;;;;;5052083;28;20037;-82
2023/04/05 10:22:39;;;;;;;7.50;5.00;;;;;;;;;;5036003;28;20037;-82
2023/04/05 10:25:10;;;;;;;7.25;5.18;;;;;;;;;;5053223;28;20363;-83
2023/04/05 10:27:40;;;;;;;9.90;5.65;;;;;;;;;;5053696;28;20040;-82
2023/04/05 10:30:07;;;;;;;9.55;5.28;;;;;;;;;;5051807;28;20127;-82
2023/04/05 10:32:53;;;;;;;7.38;4.97;;;;;;;;;;5035851;28;20049;-83
2023/04/05 10:35:31;;;;;;;9.57;5.68;;;;;;;;;;5052418;28;20482;-82
2023/04/05 10:38:11;;;;;;;6.47;4.90;;;;;;;;;;5052460;28;20061;-83
2023/04/05 10:40:37;;;;;;;8.55;4.85;;;;;;;;;;5035760;28;20498;-83
2023/04/05 10:43:04;;;;;;;7.45;5.07;;;;;;;;;;5052838;28;20045;-82
2023/04/05 10:45:31;;;;;;;7.47;5.07;;;;;;;;;;5052329;28;20033;-82
2023/04/05 10:48:18;;;;;;;6.18;4.55;;;;;;;;;;5051624;28;20098;-83
2023/04/05 10:50:47;;;;;;;8.60;4.93;;;;;;;;;;5053208;28;20119;-82
2023/04/05 10:53:13;;;;;;;6.90;4.53;;;;;;;;;;5058306;28;20079;-82
2023/04/05 10:55:40;;;;;;;7.93;4.68;;;;;;;;;;5052996;28;20438;-82
2023/04/05 10:58:06;;;;;;;6.00;4.47;;;;;;;;;;5052759;28;20041;-82
2023/04/05 11:00:33;;;;;;;6.57;4.30;;;;;;;;;;5050713;28;20052;-82
2023/04/05 11:02:59;;;;;;;6.10;4.80;;;;;;;;;;5052394;28;20106;-82
2023/04/05 11:05:32;;;;;;;8.13;5.20;;;;;;;;;;5052522;28;20091;-82
2023/04/05 11:08:06;;;;;;;7.80;5.07;;;;;;;;;;5051082;28;20095;-83
2023/04/05 11:10:34;;;;;;;8.80;5.47;;;;;;;;;;5052540;28;20067;-82
2023/04/05 11:13:01;;;;;;;7.13;5.30;;;;;;;;;;5051191;28;20405;-82
2023/04/05 11:15:27;;;;;;;10.40;5.95;;;;;;;;;;5052757;28;20383;-82
2023/04/05 11:18:05;;;;;;;8.07;5.63;;;;;;;;;;5051604;28;20551;-81
2023/04/05 11:20:44;;;;;;;10.55;5.38;;;;;;;;;;5051195;28;20045;-82
2023/04/05 11:23:10;;;;;;;12.75;5.72;;;;;;;;;;5050725;28;20044;-82
2023/04/05 11:25:38;;;;;;;12.35;5.80;;;;;;;;;;5051339;28;20052;-83
2023/04/05 11:28:05;;;;;;;9.10;5.68;;;;;;;;;;5050808;28;20102;-83
2023/04/05 11:30:47;;;;;;;9.18;5.93;;;;;;;;;;5052445;28;20051;-82
2023/04/05 11:33:32;;;;;;;9.88;5.00;;;;;;;;;;5052007;28;20037;-81
2023/04/05 11:36:04;;;;;;;7.72;4.85;;;;;;;;;;5052473;28;20048;-81
2023/04/05 11:38:30;;;;;;;8.27;5.82;;;;;;;;;;5052416;28;20049;-81
2023/04/05 11:41:16;;;;;;;8.82;5.70;;;;;;;;;;5051168;28;20045;-82
2023/04/05 11:43:42;;;;;;;8.98;5.65;;;;;;;;;;5051258;28;20032;-82
2023/04/05 11:46:09;;;;;;;10.45;6.13;;;;;;;;;;5050637;28;20029;-81
2023/04/05 11:48:35;;;;;;;10.95;5.65;;;;;;;;;;5051247;28;20485;-81
2023/04/05 11:51:07;;;;;;;8.50;4.90;;;;;;;;;;5052410;28;20048;-82
2023/04/05 11:53:33;;;;;;;9.73;5.55;;;;;;;;;;5072310;28;20070;-81
2023/04/05 11:56:05;;;;;;;7.25;4.85;;;;;;;;;;5070835;28;20075;-81
2023/04/05 11:58:31;;;;;;;6.97;5.30;;;;;;;;;;5071165;28;20037;-82
2023/04/05 12:00:59;;;;;;;10.13;5.40;;;;;;;;;;5066377;28;20037;-82
2023/04/05 12:03:27;;;;;;;9.30;5.47;;;;;;;;;;5069306;28;20043;-83
2023/04/05 12:05:54;;;;;;;8.70;5.47;;;;;;;;;;5070792;28;20084;-82
2023/04/05 12:08:21;;;;;;;10.07;5.78;;;;;;;;;;5069967;28;20068;-82
2023/04/05 12:10:54;;;;;;;11.73;5.70;;;;;;;;;;5070820;28;20497;-81
2023/04/05 12:13:28;;;;;;;9.75;5.95;;;;;;;;;;5070195;28;20036;-82
2023/04/05 12:15:56;;;;;;;9.15;6.28;;;;;;;;;;5071713;28;20070;-82
2023/04/05 12:18:25;;;;;;;9.82;6.07;;;;;;;;;;5074185;28;20039;-81
2023/04/05 12:20:51;;;;;;;9.82;5.70;;;;;;;;;;5074798;28;20218;-82
2023/04/05 12:23:17;;;;;;;10.02;6.22;;;;;;;;;;5057556;28;20044;-82
2023/04/05 12:25:47;;;;;;;8.70;6.18;;;;;;;;;;5074871;28;20543;-82
2023/04/05 12:28:13;;;;;;;9.82;6.15;;;;;;;;;;5075322;28;20051;-82
2023/04/05 12:30:52;;;;;;;10.38;6.30;;;;;;;;;;5075668;28;20051;-82
2023/04/05 12:33:28;;;;;;;9.95;5.70;;;;;;;;;;5074270;28;20501;-83
2023/04/05 12:35:54;;;;;;;8.00;5.50;;;;;;;;;;5075749;28;20052;-82
2023/04/05 12:38:20;;;;;;;8.75;5.75;;;;;;;;;;5073810;28;20057;-82
2023/04/05 12:40:46;;;;;;;7.72;5.78;;;;;;;;;;5074464;28;20040;-82
2023/04/05 12:43:18;;;;;;;9.43;6.03;;;;;;;;;;5070179;28;20091;-81
2023/04/05 12:45:44;;;;;;;8.30;5.13;;;;;;;;;;5054235;28;20044;-82
2023/04/05 12:48:14;;;;;;;8.27;5.07;;;;;;;;;;5053859;28;20045;-81
2023/04/05 12:50:50;;;;;;;8.82;5.45;;;;;;;;;;5054123;28;20123;-81
2023/04/05 12:53:19;;;;;;;8.70;5.57;;;;;;;;;;5073145;28;20040;-82
2023/04/05 12:55:48;;;;;;;8.13;5.43;;;;;;;;;;5075613;28;20040;-81
2023/04/05 12:58:16;;;;;;;7.95;5.25;;;;;;;;;;5074148;28;20041;-82
2023/04/05 13:00:42;;;;;;;7.50;5.50;;;;;;;;;;5054230;28;20093;-82
2023/04/05 13:03:15;;;;;;;10.68;5.75;;;;;;;;;;5071887;28;20051;-81
2023/04/05 13:05:41;;;;;;;8.60;5.70;;;;;;;;;;5074566;28;20049;-81
2023/04/05 13:08:07;;;;;;;7.30;5.28;;;;;;;;;;5075321;28;20528;-81
2023/04/05 13:10:34;;;;;;;9.93;5.80;;;;;;;;;;5074063;28;20045;-82
2023/04/05 13:13:00;;;;;;;7.40;5.22;;;;;;;;;;5075977;28;20044;-82
2023/04/05 13:15:26;;;;;;;11.27;5.95;;;;;;;;;;5074640;28;20115;-81
2023/04/05 13:17:53;;;;;;;8.43;5.82;;;;;;;;;;5073656;28;20154;-82
2023/04/05 13:20:20;;;;;;;8.80;5.30;;;;;;;;;;5056848;28;20036;-81
2023/04/05 13:22:46;;;;;;;8.95;5.55;;;;;;;;;;5073709;28;20048;-81
2023/04/05 13:25:13;;;;;;;9.98;5.43;;;;;;;;;;5060376;28;20037;-81
2023/04/05 13:27:39;;;;;;;10.27;5.82;;;;;;;;;;5064976;28;20103;-82
2023/04/05 13:30:05;;;;;;;8.63;4.70;;;;;;;;;;5067467;28;20048;-82
2023/04/05 13:32:32;;;;;;;9.75;5.25;;;;;;;;;;5073353;28;20481;-82
2023/04/05 13:34:58;;;;;;;7.78;5.00;;;;;;;;;;5073422;28;20098;-81
2023/04/05 13:37:24;;;;;;;9.07;5.53;;;;;;;;;;5073848;28;20044;-82
2023/04/05 13:39:50;;;;;;;8.30;5.35;;;;;;;;;;5073284;28;20037;-81
2023/04/05 13:42:16;;;;;;;8.52;5.40;;;;;;;;;;5073108;28;20516;-81
2023/04/05 13:44:42;;;;;;;9.63;6.10;;;;;;;;;;5074277;28;20043;-81
2023/04/05 13:47:09;;;;;;;12.00;5.80;;;;;;;;;;5073228;28;20545;-81
2023/04/05 13:49:35;;;;;;;7.85;5.38;;;;;;;;;;5071035;28;20488;-82
2023/04/05 13:52:01;;;;;;;8.18;5.35;;;;;;;;;;5061861;28;20044;-81
2023/04/05 13:54:27;;;;;;;9.75;5.82;;;;;;;;;;5058430;28;20048;-81
2023/04/05 13:56:53;;;;;;;8.82;5.57;;;;;;;;;;5074081;28;20039;-81
2023/04/05 13:59:19;;;;;;;8.77;5.80;;;;;;;;;;5072834;28;20048;-81
2023/04/05 14:01:46;;;;;;;8.88;5.40;;;;;;;;;;5065630;28;20051;-82
2023/04/05 14:04:12;;;;;;;7.82;5.35;;;;;;;;;;5073840;28;20036;-81
2023/04/05 14:06:38;;;;;;;7.80;5.35;;;;;;;;;;5073644;28;20074;-82
2023/04/05 14:09:04;;;;;;;9.93;5.78;;;;;;;;;;5039428;28;20040;-82
2023/04/05 14:11:31;;;;;;;9.30;5.22;;;;;;;;;;5072322;28;20052;-82
2023/04/05 14:13:57;;;;;;;8.85;5.45;;;;;;;;;;5073888;28;20505;-81
2023/04/05 14:16:23;;;;;;;8.60;5.43;;;;;;;;;;5073480;28;20032;-81
2023/04/05 14:18:50;;;;;;;11.05;5.50;;;;;;;;;;5073583;28;20373;-81
2023/04/05 14:21:16;;;;;;;11.25;5.18;;;;;;;;;;5073860;28;20523;-81
2023/04/05 14:23:42;;;;;;;10.32;5.38;;;;;;;;;;5073305;28;20082;-81
2023/04/05 14:26:08;;;;;;;10.20;6.05;;;;;;;;;;5073560;28;20037;-81
2023/04/05 14:28:34;;;;;;;8.30;5.50;;;;;;;;;;5073171;28;20401;-81
2023/04/05 14:31:00;;;;;;;7.88;5.50;;;;;;;;;;5072237;28;20051;-81
2023/04/05 14:33:26;;;;;;;7.80;5.15;;;;;;;;;;5067974;28;20120;-81
2023/04/05 14:35:53;;;;;;;8.13;5.70;;;;;;;;;;5052337;28;20072;-81
2023/04/05 14:38:19;;;;;;;10.13;5.50;;;;;;;;;;5051468;28;20060;-81
2023/04/05 14:40:45;;;;;;;7.70;5.43;;;;;;;;;;5051516;28;20049;-81